createdAt,value
2018-03-06T00:00:03.548Z,95.40
2018-03-06T00:01:07.928Z,95.40
2018-03-06T00:02:13.008Z,95.80
2018-03-06T00:03:17.045Z,95.80
2018-03-06T00:04:21.345Z,96.00
2018-03-06T00:05:26.238Z,96.40
2018-03-06T00:06:30.466Z,96.40
2018-03-06T00:07:34.521Z,96.50
2018-03-06T00:08:38.751Z,96.50
2018-03-06T00:09:42.838Z,96.50
2018-03-06T00:10:47.581Z,96.50
2018-03-06T00:11:52.416Z,96.40
2018-03-06T00:12:57.259Z,96.30
2018-03-06T00:14:01.286Z,96.30
2018-03-06T00:15:05.276Z,96.20
2018-03-06T00:16:09.437Z,96.30
2018-03-06T00:17:13.566Z,96.30
2018-03-06T00:18:17.522Z,96.40
2018-03-06T00:19:21.404Z,96.30
2018-03-06T00:20:25.389Z,96.30
2018-03-06T00:21:29.345Z,96.20
2018-03-06T00:22:33.241Z,96.20
2018-03-06T00:23:37.566Z,96.20
2018-03-06T00:24:41.445Z,96.20
2018-03-06T00:25:45.370Z,96.20
2018-03-06T00:26:49.610Z,96.20
2018-03-06T00:27:53.502Z,96.20
2018-03-06T00:28:57.354Z,96.20
2018-03-06T00:30:01.658Z,96.20
2018-03-06T00:31:06.402Z,96.20
2018-03-06T00:32:10.399Z,96.20
2018-03-06T00:33:14.296Z,96.30
2018-03-06T00:34:18.155Z,96.30
2018-03-06T00:35:22.043Z,96.20
2018-03-06T00:36:25.914Z,96.20
2018-03-06T00:37:30.006Z,96.20
2018-03-06T00:38:33.880Z,96.30
2018-03-06T00:39:37.918Z,96.30
2018-03-06T00:40:41.957Z,96.40
2018-03-06T00:41:47.051Z,96.40
2018-03-06T00:42:51.501Z,96.40
2018-03-06T00:43:55.672Z,96.50
2018-03-06T00:45:00.731Z,96.90
2018-03-06T00:46:04.786Z,96.90
2018-03-06T00:47:09.100Z,97.20
2018-03-06T00:48:13.400Z,97.00
2018-03-06T00:49:17.634Z,97.10
2018-03-06T00:50:22.541Z,97.30
2018-03-06T00:51:27.369Z,97.40
2018-03-06T00:52:31.422Z,97.40
2018-03-06T00:53:37.076Z,97.50
2018-03-06T00:54:41.363Z,97.60
2018-03-06T00:55:45.445Z,97.70
2018-03-06T00:56:49.760Z,97.70
2018-03-06T00:57:53.732Z,97.90
2018-03-06T00:58:57.914Z,97.90
2018-03-06T01:00:03.247Z,97.90
2018-03-06T01:01:07.343Z,97.90
2018-03-06T01:02:11.983Z,97.70
2018-03-06T01:03:16.640Z,97.60
2018-03-06T01:04:20.636Z,97.60
2018-03-06T01:06:27.188Z,97.60
2018-03-06T01:07:31.102Z,97.70
2018-03-06T01:08:36.212Z,97.60
2018-03-06T01:09:42.238Z,97.60
2018-03-06T01:10:46.365Z,97.50
2018-03-06T01:11:50.930Z,97.60
2018-03-06T01:12:56.385Z,97.50
2018-03-06T01:14:01.225Z,97.50
2018-03-06T01:15:06.468Z,97.50
2018-03-06T01:16:10.533Z,97.50
2018-03-06T01:17:15.257Z,97.50
2018-03-06T01:18:19.535Z,97.50
2018-03-06T01:19:23.765Z,97.50
2018-03-06T01:20:28.090Z,97.50
2018-03-06T01:21:32.843Z,97.60
2018-03-06T01:22:36.974Z,97.90
2018-03-06T01:23:41.794Z,97.50
2018-03-06T01:24:46.673Z,97.50
2018-03-06T01:25:50.663Z,97.30
2018-03-06T01:26:55.114Z,97.60
2018-03-06T01:27:59.649Z,97.60
2018-03-06T01:29:04.233Z,97.60
2018-03-06T01:30:08.577Z,97.70
2018-03-06T01:31:13.173Z,97.70
2018-03-06T01:32:17.296Z,97.70
2018-03-06T01:33:21.674Z,97.70
2018-03-06T01:34:26.592Z,97.80
2018-03-06T01:35:30.429Z,97.70
2018-03-06T01:36:34.823Z,97.80
2018-03-06T01:37:39.464Z,97.90
2018-03-06T01:38:43.384Z,97.80
2018-03-06T01:39:47.242Z,97.90
2018-03-06T01:40:51.130Z,97.90
2018-03-06T01:41:55.066Z,97.90
2018-03-06T01:42:59.407Z,98.10
2018-03-06T01:44:03.350Z,98.20
2018-03-06T01:45:07.309Z,98.40
2018-03-06T01:46:11.929Z,98.50
2018-03-06T01:47:15.818Z,98.50
2018-03-06T01:48:19.842Z,98.60
2018-03-06T01:49:24.511Z,98.70
2018-03-06T01:50:28.740Z,98.60
2018-03-06T01:51:42.254Z,98.70
2018-03-06T01:52:46.529Z,98.70
2018-03-06T01:53:50.874Z,98.60
2018-03-06T01:54:54.970Z,98.50
2018-03-06T01:55:59.124Z,98.50
2018-03-06T01:57:03.793Z,98.40
2018-03-06T01:58:07.823Z,98.50
2018-03-06T01:59:12.194Z,98.50
2018-03-06T02:00:16.222Z,98.50
2018-03-06T02:01:20.834Z,98.60
2018-03-06T02:02:26.150Z,98.70
2018-03-06T02:03:30.659Z,98.70
2018-03-06T02:04:35.253Z,98.50
2018-03-06T02:05:40.109Z,98.80
2018-03-06T02:06:44.805Z,98.90
2018-03-06T02:07:48.799Z,99.10
2018-03-06T02:08:53.129Z,99.20
2018-03-06T02:09:57.596Z,99.20
2018-03-06T02:11:01.638Z,99.20
2018-03-06T02:12:06.008Z,99.20
2018-03-06T02:13:10.234Z,99.10
2018-03-06T02:14:14.694Z,99.20
2018-03-06T02:15:19.001Z,99.30
2018-03-06T02:16:24.284Z,99.50
2018-03-06T02:17:28.188Z,99.50
2018-03-06T02:18:32.179Z,99.50
2018-03-06T02:19:36.488Z,99.60
2018-03-06T02:20:41.614Z,99.60
2018-03-06T02:21:45.523Z,99.50
2018-03-06T02:22:49.349Z,99.40
2018-03-06T02:23:53.233Z,99.50
2018-03-06T02:24:57.214Z,99.50
2018-03-06T02:26:01.711Z,99.50
2018-03-06T02:27:06.241Z,99.60
2018-03-06T02:28:10.296Z,99.60
2018-03-06T02:29:14.686Z,99.50
2018-03-06T02:30:18.891Z,99.50
2018-03-06T02:31:22.945Z,99.40
2018-03-06T02:32:26.968Z,99.40
2018-03-06T02:33:32.590Z,99.90
2018-03-06T02:34:37.497Z,99.90
2018-03-06T02:35:41.501Z,99.90
2018-03-06T02:36:45.818Z,99.80
2018-03-06T02:37:49.718Z,99.70
2018-03-06T02:38:54.522Z,99.40
2018-03-06T02:39:59.354Z,99.20
2018-03-06T02:41:03.230Z,99.20
2018-03-06T02:42:07.517Z,99.30
2018-03-06T02:43:11.649Z,99.40
2018-03-06T02:44:16.163Z,99.40
2018-03-06T02:45:20.406Z,99.80
2018-03-06T02:46:24.375Z,99.60
2018-03-06T02:47:28.674Z,99.60
2018-03-06T02:48:33.298Z,99.70
2018-03-06T02:49:37.497Z,99.50
2018-03-06T02:50:41.803Z,99.40
2018-03-06T02:51:46.470Z,99.50
2018-03-06T02:52:50.994Z,99.50
2018-03-06T02:53:55.615Z,99.50
2018-03-06T02:54:59.688Z,99.30
2018-03-06T02:56:03.805Z,99.30
2018-03-06T02:57:07.821Z,99.20
2018-03-06T02:58:12.163Z,99.10
2018-03-06T02:59:16.578Z,98.90
2018-03-06T03:00:22.198Z,98.90
2018-03-06T03:01:26.236Z,98.80
2018-03-06T03:02:30.198Z,99.00
2018-03-06T03:03:34.314Z,98.90
2018-03-06T03:04:39.023Z,98.80
2018-03-06T03:05:43.118Z,98.80
2018-03-06T03:06:47.161Z,98.90
2018-03-06T03:07:51.333Z,98.80
2018-03-06T03:08:55.426Z,98.70
2018-03-06T03:09:59.540Z,98.70
2018-03-06T03:12:32.780Z,98.60
2018-03-06T03:13:37.423Z,98.30
2018-03-06T03:14:41.747Z,98.20
2018-03-06T03:15:45.849Z,98.50
2018-03-06T03:16:49.952Z,98.20
2018-03-06T03:17:54.057Z,98.20
2018-03-06T03:18:59.175Z,98.20
2018-03-06T03:20:04.311Z,98.60
2018-03-06T03:21:08.136Z,98.30
2018-03-06T03:22:12.067Z,98.30
2018-03-06T03:23:16.206Z,98.20
2018-03-06T03:24:21.011Z,98.30
2018-03-06T03:25:25.147Z,98.30
2018-03-06T03:26:28.945Z,98.40
2018-03-06T03:27:33.637Z,98.40
2018-03-06T03:28:38.290Z,98.30
2018-03-06T03:29:42.249Z,98.30
2018-03-06T03:30:46.253Z,98.20
2018-03-06T03:31:50.142Z,98.20
2018-03-06T03:32:54.353Z,98.30
2018-03-06T03:33:58.447Z,98.20
2018-03-06T03:35:02.556Z,98.30
2018-03-06T03:36:06.660Z,98.30
2018-03-06T03:37:10.717Z,98.20
2018-03-06T03:38:15.008Z,98.20
2018-03-06T03:39:19.784Z,98.10
2018-03-06T03:40:25.688Z,98.10
2018-03-06T03:41:30.143Z,98.10
2018-03-06T03:42:35.145Z,98.00
2018-03-06T03:43:39.519Z,98.00
2018-03-06T03:44:43.806Z,97.90
2018-03-06T03:45:49.472Z,97.80
2018-03-06T03:46:54.105Z,97.80
2018-03-06T03:47:58.020Z,98.00
2018-03-06T03:49:01.979Z,98.00
2018-03-06T03:50:06.439Z,98.40
2018-03-06T03:51:10.364Z,98.20
2018-03-06T03:52:14.948Z,98.20
2018-03-06T03:53:19.264Z,98.20
2018-03-06T03:54:23.138Z,98.30
2018-03-06T03:55:27.029Z,98.60
2018-03-06T03:56:32.775Z,98.30
2018-03-06T03:57:37.030Z,98.30
2018-03-06T03:58:41.723Z,98.20
2018-03-06T03:59:45.764Z,98.10
2018-03-06T04:00:50.074Z,98.00
2018-03-06T04:01:54.180Z,97.80
2018-03-06T04:02:58.258Z,97.70
2018-03-06T04:04:02.305Z,97.60
2018-03-06T04:05:06.425Z,97.50
2018-03-06T04:06:11.262Z,97.80
2018-03-06T04:07:15.349Z,97.80
2018-03-06T04:08:20.202Z,97.60
2018-03-06T04:09:24.226Z,97.60
2018-03-06T04:10:28.320Z,97.70
2018-03-06T04:11:32.348Z,97.50
2018-03-06T04:12:36.425Z,97.50
2018-03-06T04:13:40.485Z,97.50
2018-03-06T04:14:44.523Z,97.40
2018-03-06T04:15:48.345Z,97.50
2018-03-06T04:16:52.243Z,97.50
2018-03-06T04:17:56.085Z,97.50
2018-03-06T04:19:00.871Z,97.50
2018-03-06T04:20:04.916Z,97.50
2018-03-06T04:21:08.789Z,97.40
2018-03-06T04:22:12.704Z,97.40
2018-03-06T04:23:16.660Z,97.30
2018-03-06T04:24:20.745Z,97.50
2018-03-06T04:25:24.847Z,97.50
2018-03-06T04:26:28.699Z,97.00
2018-03-06T04:27:32.626Z,96.90
2018-03-06T04:28:36.569Z,96.90
2018-03-06T04:29:40.670Z,96.80
2018-03-06T04:30:44.518Z,96.90
2018-03-06T04:31:48.661Z,96.80
2018-03-06T04:32:52.527Z,96.80
2018-03-06T04:33:56.650Z,96.80
2018-03-06T04:35:00.551Z,96.70
2018-03-06T04:36:04.438Z,96.70
2018-03-06T04:37:08.319Z,96.70
2018-03-06T04:38:12.134Z,96.70
2018-03-06T04:39:16.045Z,96.60
2018-03-06T04:40:19.917Z,96.60
2018-03-06T04:41:23.803Z,96.70
2018-03-06T04:42:27.652Z,96.60
2018-03-06T04:43:31.577Z,96.70
2018-03-06T04:44:35.429Z,96.60
2018-03-06T04:45:39.312Z,96.60
2018-03-06T04:46:43.428Z,96.80
2018-03-06T04:47:47.293Z,96.80
2018-03-06T04:48:51.110Z,96.60
2018-03-06T04:49:55.000Z,96.60
2018-03-06T04:50:59.102Z,96.70
2018-03-06T04:52:03.237Z,96.70
2018-03-06T04:53:09.456Z,96.70
2018-03-06T04:54:13.552Z,96.70
2018-03-06T04:55:17.805Z,96.60
2018-03-06T04:56:22.057Z,96.60
2018-03-06T04:57:26.089Z,96.60
2018-03-06T04:58:30.870Z,96.80
2018-03-06T04:59:35.064Z,96.80
2018-03-06T05:00:39.250Z,97.10
2018-03-06T05:01:43.539Z,96.80
2018-03-06T05:02:47.821Z,96.80
2018-03-06T05:03:52.448Z,96.80
2018-03-06T05:04:56.698Z,96.70
2018-03-06T05:06:00.955Z,96.60
2018-03-06T05:07:05.245Z,96.70
2018-03-06T05:08:09.769Z,96.70
2018-03-06T05:09:14.748Z,96.70
2018-03-06T05:10:19.186Z,96.70
2018-03-06T05:11:23.609Z,96.70
2018-03-06T05:12:27.665Z,96.70
2018-03-06T05:13:31.766Z,96.70
2018-03-06T05:14:36.013Z,96.70
2018-03-06T05:15:40.149Z,96.60
2018-03-06T05:16:44.410Z,96.70
2018-03-06T05:17:49.055Z,96.60
2018-03-06T05:18:53.283Z,96.60
2018-03-06T05:19:57.486Z,96.60
2018-03-06T05:21:02.280Z,96.70
2018-03-06T05:22:06.493Z,96.70
2018-03-06T05:23:10.957Z,96.70
2018-03-06T05:24:15.164Z,96.70
2018-03-06T05:25:19.424Z,96.70
2018-03-06T05:26:24.165Z,96.60
2018-03-06T05:27:28.101Z,96.60
2018-03-06T05:28:33.292Z,96.60
2018-03-06T05:29:39.484Z,96.60
2018-03-06T05:30:43.905Z,96.50
2018-03-06T05:31:49.061Z,96.50
2018-03-06T05:32:54.264Z,96.50
2018-03-06T05:33:58.853Z,96.60
2018-03-06T05:35:03.610Z,96.50
2018-03-06T05:36:08.588Z,96.60
2018-03-06T05:37:13.167Z,96.50
2018-03-06T05:38:18.189Z,96.50
2018-03-06T05:39:23.093Z,96.60
2018-03-06T05:40:28.930Z,96.60
2018-03-06T05:41:33.212Z,96.60
2018-03-06T05:42:37.945Z,96.60
2018-03-06T05:43:42.210Z,96.30
2018-03-06T05:44:46.491Z,96.50
2018-03-06T05:45:50.818Z,96.50
2018-03-06T05:46:56.040Z,96.50
2018-03-06T05:48:01.358Z,96.50
2018-03-06T05:49:06.823Z,96.60
2018-03-06T05:50:11.148Z,96.60
2018-03-06T05:51:15.527Z,96.50
2018-03-06T05:52:19.883Z,96.40
2018-03-06T05:53:24.191Z,96.50
2018-03-06T05:54:29.046Z,96.40
2018-03-06T05:55:33.451Z,96.40
2018-03-06T05:56:40.551Z,96.30
2018-03-06T05:57:44.711Z,96.30
2018-03-06T05:58:49.790Z,96.20
2018-03-06T05:59:54.306Z,96.20
2018-03-06T06:00:58.435Z,96.20
2018-03-06T06:02:02.719Z,96.30
2018-03-06T06:03:06.824Z,96.20
2018-03-06T06:04:11.006Z,96.10
2018-03-06T06:05:14.902Z,96.20
2018-03-06T06:06:19.218Z,96.10
2018-03-06T06:07:24.419Z,96.10
2018-03-06T06:16:06.590Z,95.80
2018-03-06T06:17:10.639Z,95.70
2018-03-06T06:18:14.672Z,95.70
2018-03-06T06:19:18.794Z,95.70
2018-03-06T06:20:22.785Z,95.60
2018-03-06T06:21:26.845Z,95.60
2018-03-06T06:22:30.923Z,95.60
2018-03-06T06:23:34.889Z,95.50
2018-03-06T06:24:39.015Z,95.50
2018-03-06T06:25:42.865Z,95.60
2018-03-06T06:26:47.581Z,95.50
2018-03-06T06:27:51.474Z,95.50
2018-03-06T06:28:56.258Z,95.50
2018-03-06T06:30:00.065Z,95.50
2018-03-06T06:31:03.929Z,95.50
2018-03-06T06:32:08.011Z,95.50
2018-03-06T06:33:13.353Z,95.60
2018-03-06T06:34:17.413Z,95.50
2018-03-06T06:35:22.093Z,95.40
2018-03-06T06:36:26.824Z,95.30
2018-03-06T06:37:30.665Z,95.30
2018-03-06T06:38:34.465Z,95.40
2018-03-06T06:39:38.463Z,95.40
2018-03-06T06:40:42.640Z,95.30
2018-03-06T06:41:47.448Z,95.10
2018-03-06T06:42:51.527Z,95.10
2018-03-06T06:43:55.592Z,95.10
2018-03-06T06:44:59.974Z,95.00
2018-03-06T06:46:04.949Z,94.80
2018-03-06T06:47:08.979Z,94.80
2018-03-06T06:48:13.136Z,94.90
2018-03-06T06:49:17.278Z,94.90
2018-03-06T06:50:21.161Z,94.90
2018-03-06T06:51:24.994Z,94.80
2018-03-06T06:52:29.643Z,94.70
2018-03-06T06:53:33.671Z,94.70
2018-03-06T06:54:37.589Z,95.60
2018-03-06T06:55:41.468Z,95.90
2018-03-06T06:56:45.292Z,96.20
2018-03-06T06:57:49.909Z,95.30
2018-03-06T06:58:54.641Z,94.80
2018-03-06T06:59:59.259Z,94.70
2018-03-06T07:01:03.885Z,94.50
2018-03-06T07:02:07.850Z,94.50
2018-03-06T07:03:11.999Z,94.60
2018-03-06T07:04:15.893Z,94.50
2018-03-06T07:05:19.718Z,94.50
2018-03-06T07:06:23.551Z,94.40
2018-03-06T07:07:28.210Z,94.40
2018-03-06T07:08:32.024Z,94.40
2018-03-06T07:09:35.897Z,94.20
2018-03-06T07:10:39.693Z,94.10
2018-03-06T07:11:43.521Z,94.20
2018-03-06T07:12:47.390Z,94.10
2018-03-06T07:13:51.199Z,94.10
2018-03-06T07:14:55.061Z,94.10
2018-03-06T07:15:58.937Z,94.10
2018-03-06T07:17:03.548Z,94.10
2018-03-06T07:18:08.100Z,94.00
2018-03-06T07:19:11.990Z,94.00
2018-03-06T07:20:16.057Z,94.00
2018-03-06T07:21:20.820Z,93.90
2018-03-06T07:22:24.598Z,93.90
2018-03-06T07:23:28.581Z,93.90
2018-03-06T07:24:33.309Z,93.90
2018-03-06T07:25:37.333Z,93.90
2018-03-06T07:26:41.350Z,93.80
2018-03-06T07:27:46.142Z,93.80
2018-03-06T07:28:50.319Z,93.80
2018-03-06T07:29:55.153Z,93.80
2018-03-06T07:30:58.990Z,93.70
2018-03-06T07:32:02.912Z,93.70
2018-03-06T07:33:06.786Z,93.60
2018-03-06T07:34:10.786Z,93.60
2018-03-06T07:35:14.604Z,93.50
2018-03-06T07:36:18.813Z,93.50
2018-03-06T07:37:23.469Z,93.50
2018-03-06T07:38:27.289Z,93.50
2018-03-06T07:39:31.173Z,93.50
2018-03-06T07:40:35.099Z,93.50
2018-03-06T07:41:38.913Z,93.40
2018-03-06T07:42:42.777Z,93.30
2018-03-06T07:43:46.630Z,93.30
2018-03-06T07:44:50.443Z,93.20
2018-03-06T07:45:54.369Z,93.10
2018-03-06T07:46:58.237Z,93.20
2018-03-06T07:48:02.052Z,93.10
2018-03-06T07:49:05.931Z,93.00
2018-03-06T07:50:09.834Z,93.00
2018-03-06T07:51:13.920Z,92.90
2018-03-06T07:52:18.997Z,92.80
2018-03-06T07:53:23.025Z,92.80
2018-03-06T07:54:27.891Z,92.80
2018-03-06T07:55:32.171Z,92.70
2018-03-06T07:56:36.645Z,92.70
2018-03-06T07:57:40.754Z,92.60
2018-03-06T07:58:44.858Z,92.70
2018-03-06T07:59:48.951Z,92.40
2018-03-06T08:00:53.015Z,92.50
2018-03-06T08:01:57.810Z,92.50
2018-03-06T08:03:02.614Z,92.50
2018-03-06T08:04:07.409Z,92.30
2018-03-06T08:05:11.769Z,92.30
2018-03-06T08:06:15.852Z,92.30
2018-03-06T08:07:19.791Z,92.20
2018-03-06T08:08:23.821Z,92.20
2018-03-06T08:09:28.156Z,92.50
2018-03-06T08:10:32.485Z,92.30
2018-03-06T08:11:36.694Z,92.20
2018-03-06T08:12:40.719Z,92.30
2018-03-06T08:13:44.721Z,92.30
2018-03-06T08:14:48.980Z,92.20
2018-03-06T08:15:53.701Z,92.10
2018-03-06T08:16:57.717Z,92.20
2018-03-06T08:18:01.632Z,92.20
2018-03-06T08:19:05.529Z,92.20
2018-03-06T08:20:10.146Z,92.30
2018-03-06T08:21:14.014Z,92.30
2018-03-06T08:22:17.945Z,92.30
2018-03-06T08:23:21.775Z,92.30
2018-03-06T08:24:26.446Z,92.30
2018-03-06T08:25:33.374Z,92.60
2018-03-06T08:26:37.365Z,92.40
2018-03-06T08:27:42.027Z,92.30
2018-03-06T08:28:45.898Z,92.30
2018-03-06T08:29:50.565Z,92.40
2018-03-06T08:30:55.253Z,92.10
2018-03-06T08:31:59.152Z,92.10
2018-03-06T08:33:03.101Z,92.10
2018-03-06T08:34:07.759Z,91.90
2018-03-06T08:35:11.599Z,91.90
2018-03-06T08:36:16.418Z,91.90
2018-03-06T08:37:21.137Z,91.90
2018-03-06T08:38:25.998Z,91.90
2018-03-06T08:39:30.032Z,91.90
2018-03-06T08:40:34.094Z,91.80
2018-03-06T08:41:38.154Z,91.70
2018-03-06T08:42:42.195Z,91.70
2018-03-06T08:43:46.167Z,91.70
2018-03-06T08:44:50.970Z,91.40
2018-03-06T08:45:54.948Z,91.40
2018-03-06T08:46:58.823Z,91.50
2018-03-06T08:48:02.696Z,91.50
2018-03-06T08:49:06.713Z,91.60
2018-03-06T08:50:10.529Z,91.50
2018-03-06T08:51:14.713Z,91.30
2018-03-06T08:52:18.602Z,91.30
2018-03-06T08:53:22.546Z,91.30
2018-03-06T08:54:26.902Z,91.00
2018-03-06T08:55:30.965Z,90.90
2018-03-06T08:56:38.637Z,90.70
2018-03-06T08:57:42.713Z,90.90
2018-03-06T08:58:46.677Z,90.90
2018-03-06T08:59:51.553Z,90.70
2018-03-06T09:00:55.538Z,90.70
2018-03-06T09:01:59.609Z,90.60
2018-03-06T09:03:03.577Z,90.30
2018-03-06T09:04:08.386Z,90.00
2018-03-06T09:05:12.342Z,89.90
2018-03-06T09:06:16.582Z,89.80
2018-03-06T09:07:20.591Z,89.60
2018-03-06T09:08:24.693Z,89.50
2018-03-06T09:09:28.701Z,89.60
2018-03-06T09:10:33.422Z,88.90
2018-03-06T09:11:38.241Z,88.60
2018-03-06T09:12:42.974Z,89.00
2018-03-06T09:13:47.206Z,89.10
2018-03-06T09:14:52.388Z,88.60
2018-03-06T09:15:57.174Z,88.50
2018-03-06T09:17:01.272Z,88.50
2018-03-06T09:18:05.336Z,88.50
2018-03-06T09:19:09.392Z,88.50
2018-03-06T09:20:13.464Z,88.30
2018-03-06T09:21:18.135Z,87.80
2018-03-06T09:22:23.874Z,86.60
2018-03-06T09:23:28.696Z,86.50
2018-03-06T09:24:33.609Z,86.00
2018-03-06T09:25:37.605Z,86.00
2018-03-06T09:26:42.724Z,85.60
2018-03-06T09:27:47.485Z,85.70
2018-03-06T09:28:51.552Z,85.60
2018-03-06T09:29:56.305Z,85.30
2018-03-06T09:31:01.045Z,85.60
2018-03-06T09:32:05.087Z,85.60
2018-03-06T09:33:09.950Z,85.10
2018-03-06T09:34:13.945Z,85.10
2018-03-06T09:35:17.942Z,85.10
2018-03-06T09:36:21.971Z,85.00
2018-03-06T09:37:25.981Z,85.00
2018-03-06T09:38:30.776Z,84.50
2018-03-06T09:39:34.817Z,84.50
2018-03-06T09:40:39.570Z,85.00
2018-03-06T09:41:43.596Z,85.00
2018-03-06T09:42:47.600Z,85.00
2018-03-06T09:43:51.579Z,85.50
2018-03-06T09:44:55.632Z,84.50
2018-03-06T09:45:59.674Z,84.60
2018-03-06T09:47:03.761Z,84.80
2018-03-06T09:48:07.829Z,85.00
2018-03-06T09:49:12.173Z,84.40
2018-03-06T09:50:16.169Z,83.30
2018-03-06T09:51:21.002Z,82.50
2018-03-06T09:52:25.090Z,82.50
2018-03-06T09:53:29.824Z,82.60
2018-03-06T09:54:33.939Z,82.60
2018-03-06T09:55:37.978Z,82.50
2018-03-06T09:56:41.997Z,82.40
2018-03-06T09:57:46.749Z,81.20
2018-03-06T09:58:50.874Z,81.10
2018-03-06T09:59:54.935Z,80.90
2018-03-06T10:00:58.922Z,80.70
2018-03-06T10:02:03.805Z,80.80
2018-03-06T10:03:07.756Z,80.80
2018-03-06T10:04:11.621Z,80.00
2018-03-06T10:05:15.560Z,79.30
2018-03-06T10:06:19.572Z,78.90
2018-03-06T10:07:23.579Z,77.70
2018-03-06T10:08:27.585Z,77.40
2018-03-06T10:09:31.570Z,77.60
2018-03-06T10:10:35.641Z,77.40
2018-03-06T10:11:39.717Z,76.60
2018-03-06T10:12:43.668Z,75.60
2018-03-06T10:13:47.728Z,75.30
2018-03-06T10:14:51.852Z,75.50
2018-03-06T10:15:55.811Z,75.30
2018-03-06T10:16:59.731Z,74.70
2018-03-06T10:18:04.404Z,74.90
2018-03-06T10:19:08.328Z,74.20
2018-03-06T10:20:12.301Z,74.50
2018-03-06T10:21:16.134Z,74.60
2018-03-06T10:22:20.743Z,74.00
2018-03-06T10:23:25.540Z,74.40
2018-03-06T10:24:29.627Z,74.40
2018-03-06T10:25:33.858Z,73.70
2018-03-06T10:26:37.770Z,74.30
2018-03-06T10:27:42.385Z,74.70
2018-03-06T10:28:47.068Z,73.50
2018-03-06T10:29:51.153Z,73.50
2018-03-06T10:30:55.306Z,73.50
2018-03-06T10:31:59.998Z,73.40
2018-03-06T10:33:03.819Z,73.40
2018-03-06T10:34:07.933Z,73.10
2018-03-06T10:35:13.084Z,72.80
2018-03-06T10:36:17.334Z,72.80
2018-03-06T10:37:21.243Z,72.80
2018-03-06T10:38:25.282Z,72.30
2018-03-06T10:39:29.357Z,72.20
2018-03-06T10:40:33.438Z,72.00
2018-03-06T10:41:37.292Z,71.80
2018-03-06T10:42:41.158Z,71.10
2018-03-06T10:43:45.219Z,70.80
2018-03-06T10:44:49.455Z,70.20
2018-03-06T10:45:54.331Z,70.40
2018-03-06T10:46:58.420Z,70.40
2018-03-06T10:48:02.566Z,70.10
2018-03-06T10:49:07.109Z,69.60
2018-03-06T10:50:12.089Z,68.40
2018-03-06T10:51:16.138Z,68.40
2018-03-06T10:52:20.174Z,67.70
2018-03-06T10:53:24.241Z,67.50
2018-03-06T10:54:29.109Z,66.80
2018-03-06T10:55:33.168Z,66.80
2018-03-06T10:56:37.003Z,66.70
2018-03-06T10:57:40.817Z,66.20
2018-03-06T10:58:44.708Z,67.00
2018-03-06T10:59:48.583Z,66.80
2018-03-06T11:00:54.567Z,65.90
2018-03-06T11:01:59.567Z,65.70
2018-03-06T11:03:04.427Z,65.60
2018-03-06T11:04:09.051Z,65.00
2018-03-06T11:05:13.439Z,64.80
2018-03-06T11:06:18.369Z,63.70
2018-03-06T11:07:23.006Z,63.30
2018-03-06T11:08:26.806Z,63.10
2018-03-06T11:09:30.713Z,63.00
2018-03-06T11:10:34.553Z,62.30
2018-03-06T11:11:38.504Z,62.30
2018-03-06T11:12:42.508Z,63.30
2018-03-06T11:13:46.402Z,62.70
2018-03-06T11:14:50.293Z,62.10
2018-03-06T11:15:54.463Z,61.60
2018-03-06T11:16:59.412Z,60.40
2018-03-06T11:18:03.435Z,60.40
2018-03-06T11:19:07.416Z,60.30
2018-03-06T11:20:11.485Z,60.00
2018-03-06T11:21:16.294Z,60.60
2018-03-06T11:22:20.195Z,60.70
2018-03-06T11:23:24.133Z,60.40
2018-03-06T11:24:28.038Z,60.00
2018-03-06T11:25:31.891Z,60.50
2018-03-06T11:26:36.124Z,59.40
2018-03-06T11:27:40.825Z,61.10
2018-03-06T11:28:45.524Z,60.50
2018-03-06T11:29:49.642Z,60.40
2018-03-06T11:30:55.014Z,60.10
2018-03-06T11:31:59.073Z,60.00
2018-03-06T11:33:04.018Z,61.40
2018-03-06T11:34:08.119Z,61.90
2018-03-06T11:35:12.176Z,60.00
2018-03-06T11:36:16.674Z,58.80
2018-03-06T11:37:20.928Z,58.20
2018-03-06T11:38:24.756Z,59.80
2018-03-06T11:39:28.815Z,60.70
2018-03-06T11:40:33.577Z,58.00
2018-03-06T11:41:37.619Z,58.10
2018-03-06T11:42:41.763Z,59.40
2018-03-06T11:43:45.906Z,58.60
2018-03-06T11:44:49.901Z,57.10
2018-03-06T11:45:53.960Z,57.10
2018-03-06T11:46:58.052Z,55.30
2018-03-06T11:48:02.110Z,54.30
2018-03-06T11:49:06.240Z,53.50
2018-03-06T11:50:11.112Z,53.40
2018-03-06T11:51:15.257Z,53.40
2018-03-06T11:52:20.113Z,50.80
2018-03-06T11:53:24.172Z,50.80
2018-03-06T11:54:28.228Z,50.30
2018-03-06T11:55:32.568Z,51.20
2018-03-06T11:56:36.729Z,51.50
2018-03-06T11:57:40.855Z,50.80
2018-03-06T11:58:44.855Z,51.00
2018-03-06T11:59:48.770Z,51.10
2018-03-06T12:00:52.678Z,52.20
2018-03-06T12:01:56.790Z,54.90
2018-03-06T12:03:01.514Z,56.40
2018-03-06T12:04:06.197Z,57.40
2018-03-06T12:05:10.468Z,57.40
2018-03-06T12:06:14.875Z,58.90
2018-03-06T12:07:19.030Z,59.40
2018-03-06T12:08:23.118Z,59.90
2018-03-06T12:09:29.996Z,60.10
2018-03-06T12:10:34.017Z,60.90
2018-03-06T12:11:38.877Z,62.70
2018-03-06T12:12:42.902Z,62.60
2018-03-06T12:13:47.255Z,63.30
2018-03-06T12:14:51.407Z,63.30
2018-03-06T12:15:55.504Z,63.60
2018-03-06T12:16:59.541Z,63.30
2018-03-06T12:18:04.232Z,62.90
2018-03-06T12:19:08.156Z,62.90
2018-03-06T12:20:12.873Z,62.50
2018-03-06T12:21:17.756Z,62.40
2018-03-06T12:22:21.625Z,62.30
2018-03-06T12:23:25.553Z,62.30
2018-03-06T12:24:29.444Z,62.20
2018-03-06T12:25:33.888Z,61.70
2018-03-06T12:26:38.619Z,60.60
2018-03-06T12:27:43.314Z,60.90
2018-03-06T12:28:47.239Z,60.90
2018-03-06T12:29:51.213Z,61.70
2018-03-06T12:30:56.113Z,62.50
2018-03-06T12:32:00.012Z,62.10
2018-03-06T12:33:04.044Z,62.10
2018-03-06T12:34:08.380Z,64.10
2018-03-06T12:35:12.746Z,63.60
2018-03-06T12:36:17.494Z,63.40
2018-03-06T12:37:21.917Z,62.70
2018-03-06T12:38:26.217Z,62.00
2018-03-06T12:39:30.310Z,61.10
2018-03-06T12:40:35.277Z,60.20
2018-03-06T12:41:43.926Z,60.10
2018-03-06T12:42:51.927Z,59.80
2018-03-06T12:43:56.748Z,59.70
2018-03-06T12:45:01.356Z,60.70
2018-03-06T12:46:05.273Z,60.80
2018-03-06T12:47:09.168Z,60.30
2018-03-06T12:48:13.004Z,60.20
2018-03-06T12:49:17.101Z,59.70
2018-03-06T12:50:21.480Z,59.60
2018-03-06T12:51:26.211Z,58.90
2018-03-06T12:52:30.265Z,58.90
2018-03-06T12:53:34.367Z,59.00
2018-03-06T12:54:38.435Z,59.70
2018-03-06T12:55:43.130Z,61.10
2018-03-06T12:56:47.889Z,61.30
2018-03-06T12:57:51.884Z,61.70
2018-03-06T12:58:55.914Z,62.50
2018-03-06T13:00:00.948Z,62.60
2018-03-06T13:01:05.896Z,61.00
2018-03-06T13:02:10.024Z,61.00
2018-03-06T13:03:14.060Z,59.80
2018-03-06T13:04:18.924Z,59.70
2018-03-06T13:05:22.932Z,59.10
2018-03-06T13:06:27.006Z,59.00
2018-03-06T13:07:31.085Z,58.80
2018-03-06T13:08:37.530Z,58.80
2018-03-06T13:09:42.339Z,58.90
2018-03-06T13:10:46.344Z,58.70
2018-03-06T13:11:51.074Z,58.80
2018-03-06T13:12:56.602Z,58.70
2018-03-06T13:14:00.521Z,58.80
2018-03-06T13:15:04.569Z,58.70
2018-03-06T13:16:08.606Z,58.40
2018-03-06T13:17:13.788Z,58.00
2018-03-06T13:18:17.944Z,58.00
2018-03-06T13:19:24.038Z,58.70
2018-03-06T13:20:27.884Z,58.70
2018-03-06T13:21:37.798Z,58.90
2018-03-06T13:22:41.879Z,58.80
2018-03-06T13:23:45.710Z,58.50
2018-03-06T13:24:49.681Z,58.50
2018-03-06T13:25:53.574Z,58.80
2018-03-06T13:26:58.055Z,58.90
2018-03-06T13:28:02.910Z,59.30
2018-03-06T13:29:07.020Z,59.30
2018-03-06T13:30:11.681Z,59.20
2018-03-06T13:31:15.882Z,58.90
2018-03-06T13:32:21.114Z,58.70
2018-03-06T13:33:26.745Z,58.70
2018-03-06T13:34:31.677Z,58.90
2018-03-06T13:35:36.265Z,59.10
2018-03-06T13:36:41.020Z,59.40
2018-03-06T13:37:44.933Z,59.40
2018-03-06T13:38:48.927Z,60.20
2018-03-06T13:39:52.826Z,60.70
2018-03-06T13:40:56.768Z,60.70
2018-03-06T13:42:01.441Z,60.10
2018-03-06T13:43:05.441Z,60.10
2018-03-06T13:44:09.439Z,59.80
2018-03-06T13:45:13.264Z,59.70
2018-03-06T13:46:17.086Z,59.20
2018-03-06T13:47:22.195Z,59.80
2018-03-06T13:48:27.203Z,60.60
2018-03-06T13:49:32.969Z,60.60
2018-03-06T13:50:45.639Z,60.90
2018-03-06T13:51:49.643Z,60.90
2018-03-06T13:52:53.783Z,60.30
2018-03-06T13:53:58.732Z,60.20
2018-03-06T13:55:02.851Z,60.20
2018-03-06T13:56:07.327Z,60.30
2018-03-06T13:57:12.160Z,59.70
2018-03-06T13:58:16.290Z,59.80